createdAt,value
2022-09-03T00:02:34.634Z,96753.00
2022-09-03T00:10:44.146Z,96757.00
2022-09-03T00:15:45.129Z,96751.00
2022-09-03T00:20:57.934Z,96753.00
2022-09-03T00:26:26.789Z,96751.00
2022-09-03T00:31:36.009Z,96752.00
2022-09-03T00:36:45.209Z,96755.00
2022-09-03T00:45:13.722Z,96754.00
2022-09-03T00:50:36.131Z,96747.00
2022-09-03T01:00:44.483Z,96743.00
2022-09-03T01:06:17.770Z,96748.00
2022-09-03T01:12:01.849Z,96756.00
2022-09-03T01:18:59.958Z,96751.00
2022-09-03T01:24:40.722Z,96754.00
2022-09-03T01:30:00.048Z,96747.00
2022-09-03T01:35:15.077Z,96739.00
2022-09-03T01:40:35.227Z,96741.00
2022-09-03T01:46:32.368Z,96725.00
2022-09-03T01:51:34.458Z,96730.00
2022-09-03T01:58:38.347Z,96728.00
2022-09-03T02:03:42.173Z,96728.00
2022-09-03T02:08:43.083Z,96732.00
2022-09-03T02:13:48.859Z,96736.00
2022-09-03T02:18:54.199Z,96742.00
2022-09-03T02:23:55.268Z,96737.00
2022-09-03T02:28:57.212Z,96724.00
2022-09-03T02:33:58.128Z,96722.00
2022-09-03T02:38:59.890Z,96721.00
2022-09-03T02:44:36.264Z,96739.00
2022-09-03T02:49:38.932Z,96735.00
2022-09-03T02:54:40.179Z,96745.00
2022-09-03T02:59:43.800Z,96742.00
2022-09-03T03:04:44.702Z,96725.00
2022-09-03T03:09:45.560Z,96732.00
2022-09-03T03:14:46.447Z,96736.00
2022-09-03T03:19:48.448Z,96730.00
2022-09-03T03:24:49.745Z,96723.00
2022-09-03T03:29:51.402Z,96717.00
2022-09-03T03:34:52.246Z,96715.00
2022-09-03T03:39:53.732Z,96710.00
2022-09-03T03:44:55.004Z,96709.00
2022-09-03T03:49:57.555Z,96711.00
2022-09-03T03:54:58.469Z,96721.00
2022-09-03T03:59:59.657Z,96722.00
2022-09-03T04:05:01.039Z,96722.00
2022-09-03T04:10:01.893Z,96726.00
2022-09-03T04:15:03.290Z,96728.00
2022-09-03T04:20:05.211Z,96721.00
2022-09-03T04:25:06.523Z,96718.00
2022-09-03T04:30:08.108Z,96721.00
2022-09-03T04:35:09.198Z,96715.00
2022-09-03T04:40:10.550Z,96722.00
2022-09-03T04:45:15.040Z,96726.00
2022-09-03T04:50:16.246Z,96732.00
2022-09-03T04:55:18.752Z,96737.00
2022-09-03T05:00:19.668Z,96737.00
2022-09-03T05:05:20.552Z,96746.00
2022-09-03T05:10:21.919Z,96743.00
2022-09-03T05:15:22.780Z,96753.00
2022-09-03T05:20:24.562Z,96757.00
2022-09-03T05:25:25.383Z,96746.00
2022-09-03T05:30:26.731Z,96752.00
2022-09-03T05:35:30.158Z,96768.00
2022-09-03T05:40:33.444Z,96770.00
2022-09-03T05:45:34.294Z,96781.00
2022-09-03T05:50:36.415Z,96782.00
2022-09-03T05:55:37.208Z,96787.00
2022-09-03T06:00:38.652Z,96778.00
2022-09-03T06:05:39.464Z,96778.00
2022-09-03T06:10:41.113Z,96778.00
2022-09-03T06:15:42.101Z,96784.00
2022-09-03T06:20:43.031Z,96780.00
2022-09-03T06:25:43.814Z,96776.00
2022-09-03T06:30:44.662Z,96769.00
2022-09-03T06:35:46.213Z,96772.00
2022-09-03T06:41:01.822Z,96767.00
2022-09-03T06:46:06.098Z,96774.00
2022-09-03T06:51:14.700Z,96765.00
2022-09-03T06:56:18.524Z,96766.00
2022-09-03T07:01:21.879Z,96784.00
2022-09-03T07:06:25.015Z,96783.00
2022-09-03T07:11:28.656Z,96792.00
2022-09-03T07:16:36.751Z,96781.00
2022-09-03T07:21:46.524Z,96795.00
2022-09-03T07:26:50.060Z,96786.00
2022-09-03T07:31:51.160Z,96799.00
2022-09-03T07:36:53.283Z,96792.00
2022-09-03T07:41:54.504Z,96795.00
2022-09-03T07:46:55.895Z,96785.00
2022-09-03T07:51:56.934Z,96800.00
2022-09-03T07:56:58.445Z,96799.00
2022-09-03T08:01:59.390Z,96794.00
2022-09-03T08:07:00.236Z,96805.00
2022-09-03T08:12:01.674Z,96800.00
2022-09-03T08:17:02.663Z,96802.00
2022-09-03T08:22:03.724Z,96809.00
2022-09-03T08:27:04.658Z,96811.00
2022-09-03T08:32:05.722Z,96824.00
2022-09-03T08:37:09.142Z,96832.00
2022-09-03T08:42:47.081Z,96841.00
2022-09-03T08:47:56.195Z,96848.00
2022-09-03T08:54:31.820Z,96851.00
2022-09-03T08:59:33.216Z,96846.00
2022-09-03T09:05:13.995Z,96858.00
2022-09-03T09:10:47.212Z,96852.00
2022-09-03T09:17:05.905Z,96852.00
2022-09-03T09:22:40.390Z,96841.00
2022-09-03T09:27:50.957Z,96848.00
2022-09-03T09:32:52.259Z,96851.00
2022-09-03T09:37:56.351Z,96860.00
2022-09-03T09:43:30.428Z,96862.00
2022-09-03T09:48:38.225Z,96858.00
2022-09-03T09:53:40.545Z,96870.00
2022-09-03T09:58:41.629Z,96883.00
2022-09-03T10:03:57.273Z,96875.00
2022-09-03T10:09:16.575Z,96881.00
2022-09-03T10:14:34.544Z,96882.00
2022-09-03T10:21:04.174Z,96874.00
2022-09-03T10:26:16.069Z,96864.00
2022-09-03T10:33:07.487Z,96862.00
2022-09-03T10:40:56.227Z,96861.00
2022-09-03T10:46:07.945Z,96867.00
2022-09-03T10:51:27.443Z,96871.00
2022-09-03T10:56:58.872Z,96863.00
2022-09-03T11:04:09.969Z,96856.00
2022-09-03T11:10:10.849Z,96856.00
2022-09-03T11:15:27.964Z,96857.00
2022-09-03T11:20:31.390Z,96850.00
2022-09-03T11:25:36.437Z,96848.00
2022-09-03T11:32:15.108Z,96848.00
2022-09-03T11:37:27.752Z,96845.00
2022-09-03T11:42:42.756Z,96835.00
2022-09-03T11:47:44.826Z,96831.00
2022-09-03T11:52:47.775Z,96830.00
2022-09-03T11:57:48.695Z,96818.00
2022-09-03T12:03:02.640Z,96827.00
2022-09-03T12:10:37.514Z,96821.00
2022-09-03T12:18:52.302Z,96833.00
2022-09-03T12:23:58.008Z,96826.00
2022-09-03T12:29:00.278Z,96811.00
2022-09-03T12:34:09.429Z,96814.00
2022-09-03T12:39:13.444Z,96810.00
2022-09-03T12:44:14.485Z,96813.00
2022-09-03T12:49:30.920Z,96812.00
2022-09-03T12:54:34.214Z,96816.00
2022-09-03T12:59:37.778Z,96823.00
2022-09-03T13:04:39.883Z,96816.00
2022-09-03T13:09:42.022Z,96823.00
2022-09-03T13:14:46.424Z,96832.00
2022-09-03T13:20:24.160Z,96831.00
2022-09-03T13:30:48.036Z,96837.00
2022-09-03T13:36:28.636Z,96831.00
2022-09-03T13:41:49.445Z,96823.00
2022-09-03T13:47:25.490Z,96826.00
2022-09-03T13:53:04.208Z,96829.00
2022-09-03T13:58:21.338Z,96816.00
2022-09-03T14:03:48.106Z,96813.00
2022-09-03T14:11:08.903Z,96804.00
2022-09-03T14:17:41.128Z,96823.00
2022-09-03T14:23:25.366Z,96832.00
2022-09-03T14:28:59.013Z,96837.00
2022-09-03T14:34:24.137Z,96835.00
2022-09-03T14:39:51.725Z,96816.00
2022-09-03T14:45:15.796Z,96822.00
2022-09-03T14:50:42.356Z,96820.00
2022-09-03T14:56:12.081Z,96831.00
2022-09-03T15:01:28.964Z,96813.00
2022-09-03T15:07:30.183Z,96806.00
2022-09-03T15:12:38.362Z,96821.00
2022-09-03T15:23:48.521Z,96824.00
2022-09-03T15:30:17.594Z,96842.00
2022-09-03T15:36:53.624Z,96841.00
2022-09-03T15:42:28.450Z,96883.00
2022-09-03T15:47:53.196Z,96887.00
2022-09-03T15:53:35.976Z,96907.00
2022-09-03T15:59:18.857Z,96912.00
2022-09-03T16:04:56.965Z,96902.00
2022-09-03T16:12:35.527Z,96894.00
2022-09-03T16:19:39.174Z,96883.00
2022-09-03T16:24:53.145Z,96854.00
2022-09-03T16:30:01.634Z,96843.00
2022-09-03T16:35:23.347Z,96838.00
2022-09-03T16:40:52.202Z,96841.00
2022-09-03T16:46:12.637Z,96852.00
2022-09-03T16:51:34.317Z,96844.00
2022-09-03T16:56:49.528Z,96843.00
2022-09-03T17:06:12.084Z,96841.00
2022-09-03T17:14:01.552Z,96848.00
2022-09-03T17:20:47.247Z,96845.00
2022-09-03T17:26:42.411Z,96855.00
2022-09-03T17:33:36.943Z,96867.00
2022-09-03T17:39:44.722Z,96864.00
2022-09-03T17:44:59.990Z,96862.00
2022-09-03T17:50:24.155Z,96869.00
2022-09-03T17:55:36.966Z,96884.00
2022-09-03T18:01:28.312Z,96894.00
2022-09-03T18:06:51.757Z,96889.00
2022-09-03T18:16:43.387Z,96892.00
2022-09-03T18:22:06.717Z,96909.00
2022-09-03T18:27:36.285Z,96918.00
2022-09-03T18:32:56.129Z,96920.00
2022-09-03T18:38:15.958Z,96926.00
2022-09-03T18:44:02.354Z,96927.00
2022-09-03T18:49:48.101Z,96933.00
2022-09-03T18:58:50.814Z,96942.00
2022-09-03T19:07:18.678Z,96946.00
2022-09-03T19:14:25.443Z,96951.00
2022-09-03T19:22:03.745Z,96955.00
2022-09-03T19:29:16.897Z,96979.00
2022-09-03T19:36:15.635Z,96979.00
2022-09-03T19:42:05.971Z,96984.00
2022-09-03T19:47:27.497Z,96997.00
2022-09-03T19:53:33.250Z,96982.00
2022-09-03T19:58:55.993Z,96990.00
2022-09-03T20:04:22.214Z,97001.00
2022-09-03T20:09:47.688Z,97003.00
2022-09-03T20:14:48.805Z,97007.00
2022-09-03T20:20:13.786Z,97029.00
2022-09-03T20:25:44.204Z,97036.00
2022-09-03T20:31:47.524Z,97039.00
2022-09-03T20:39:44.556Z,97038.00
2022-09-03T20:44:53.742Z,97031.00
2022-09-03T20:51:22.023Z,97027.00
2022-09-03T20:56:36.815Z,97030.00
2022-09-03T21:01:51.489Z,97026.00
2022-09-03T21:10:06.779Z,97025.00
2022-09-03T21:15:12.850Z,97037.00
2022-09-03T21:20:36.340Z,97038.00
2022-09-03T21:26:14.483Z,97047.00
2022-09-03T21:31:23.064Z,97034.00
2022-09-03T21:36:29.618Z,97047.00
2022-09-03T21:41:43.547Z,97048.00
2022-09-03T21:46:58.043Z,97046.00
2022-09-03T21:52:11.318Z,97049.00
2022-09-03T21:58:01.575Z,97047.00
2022-09-03T22:03:05.728Z,97056.00
2022-09-03T22:08:44.750Z,97060.00
2022-09-03T22:14:02.058Z,97058.00
2022-09-03T22:19:08.186Z,97061.00
2022-09-03T22:24:32.539Z,97068.00
2022-09-03T22:29:45.995Z,97062.00
2022-09-03T22:35:22.723Z,97059.00
2022-09-03T22:45:48.592Z,97066.00
2022-09-03T22:50:58.118Z,97055.00
2022-09-03T22:56:14.256Z,97064.00
2022-09-03T23:01:24.598Z,97063.00
2022-09-03T23:06:33.346Z,97066.00
2022-09-03T23:11:52.471Z,97072.00
2022-09-03T23:16:59.657Z,97075.00
2022-09-03T23:22:04.775Z,97079.00
2022-09-03T23:27:13.332Z,97083.00
2022-09-03T23:32:14.418Z,97086.00
2022-09-03T23:40:23.302Z,97087.00
2022-09-03T23:46:33.817Z,97101.00
2022-09-03T23:54:24.847Z,97105.00
